createdAt,value
2018-05-31T00:01:06.836Z,22.60
2018-05-31T00:03:34.345Z,22.60
2018-05-31T00:06:01.859Z,22.60
2018-05-31T00:08:29.616Z,22.60
2018-05-31T00:10:57.502Z,22.50
2018-05-31T00:13:25.270Z,22.50
2018-05-31T00:15:52.788Z,22.30
2018-05-31T00:18:20.480Z,22.40
2018-05-31T00:20:48.759Z,22.30
2018-05-31T00:23:16.321Z,22.20
2018-05-31T00:25:44.090Z,22.10
2018-05-31T00:28:11.591Z,22.10
2018-05-31T00:30:40.096Z,22.10
2018-05-31T00:33:07.700Z,22.10
2018-05-31T00:35:35.212Z,22.20
2018-05-31T00:38:02.910Z,22.20
2018-05-31T00:40:30.422Z,22.00
2018-05-31T00:42:58.085Z,22.00
2018-05-31T00:45:25.609Z,22.00
2018-05-31T00:47:54.630Z,22.00
2018-05-31T00:50:22.134Z,22.10
2018-05-31T00:52:49.639Z,22.10
2018-05-31T00:55:24.692Z,22.10
2018-05-31T00:57:52.406Z,22.10
2018-05-31T01:00:21.438Z,21.90
2018-05-31T01:02:48.994Z,21.80
2018-05-31T01:05:16.514Z,21.70
2018-05-31T01:07:44.037Z,21.60
2018-05-31T01:10:11.546Z,21.80
2018-05-31T01:12:39.069Z,21.70
2018-05-31T01:15:06.603Z,21.90
2018-05-31T01:17:35.116Z,21.70
2018-05-31T01:20:02.731Z,21.60
2018-05-31T01:22:30.335Z,21.50
2018-05-31T01:24:57.854Z,21.50
2018-05-31T01:27:25.377Z,21.50
2018-05-31T01:29:53.009Z,21.50
2018-05-31T01:32:20.927Z,21.40
2018-05-31T01:34:48.504Z,21.40
2018-05-31T01:37:16.022Z,21.50
2018-05-31T01:39:43.632Z,21.60
2018-05-31T01:42:11.130Z,21.50
2018-05-31T01:44:38.640Z,21.70
2018-05-31T01:47:06.154Z,21.60
2018-05-31T01:49:33.665Z,21.50
2018-05-31T01:52:01.358Z,21.30
2018-05-31T01:54:28.867Z,21.20
2018-05-31T01:56:56.406Z,21.10
2018-05-31T01:59:24.341Z,21.10
2018-05-31T02:01:51.851Z,21.10
2018-05-31T02:04:19.513Z,21.10
2018-05-31T02:06:47.311Z,20.90
2018-05-31T02:09:14.846Z,21.00
2018-05-31T02:11:42.715Z,20.90
2018-05-31T02:14:10.306Z,20.90
2018-05-31T02:16:38.062Z,20.90
2018-05-31T02:19:05.850Z,20.80
2018-05-31T02:21:34.902Z,20.80
2018-05-31T02:24:02.578Z,20.80
2018-05-31T02:26:30.097Z,20.70
2018-05-31T02:28:57.799Z,20.60
2018-05-31T02:31:25.313Z,20.70
2018-05-31T02:33:53.321Z,20.70
2018-05-31T02:36:21.398Z,20.60
2018-05-31T02:38:49.157Z,20.60
2018-05-31T02:41:16.925Z,20.60
2018-05-31T02:43:44.426Z,20.50
2018-05-31T02:46:11.948Z,20.50
2018-05-31T02:48:39.453Z,20.50
2018-05-31T02:51:07.059Z,20.50
2018-05-31T02:53:34.570Z,20.30
2018-05-31T02:56:02.081Z,20.40
2018-05-31T02:58:29.697Z,20.40
2018-05-31T03:00:57.497Z,20.30
2018-05-31T03:03:25.005Z,20.30
2018-05-31T03:05:52.666Z,20.30
2018-05-31T03:08:20.185Z,20.30
2018-05-31T03:10:47.727Z,20.10
2018-05-31T03:13:15.233Z,20.10
2018-05-31T03:15:43.530Z,20.10
2018-05-31T03:18:11.041Z,20.10
2018-05-31T03:20:38.583Z,20.20
2018-05-31T03:23:06.767Z,20.10
2018-05-31T03:25:34.524Z,20.10
2018-05-31T03:28:02.298Z,20.00
2018-05-31T03:30:30.065Z,20.00
2018-05-31T03:32:57.588Z,20.00
2018-05-31T03:35:25.090Z,19.90
2018-05-31T03:37:52.600Z,20.10
2018-05-31T03:40:20.145Z,20.20
2018-05-31T03:42:47.666Z,20.10
2018-05-31T03:45:16.685Z,20.00
2018-05-31T03:47:44.391Z,20.00
2018-05-31T03:50:11.894Z,19.80
2018-05-31T03:52:39.442Z,19.80
2018-05-31T03:55:06.946Z,19.70
2018-05-31T03:57:34.538Z,19.60
2018-05-31T04:00:02.050Z,19.50
2018-05-31T04:02:29.932Z,19.70
2018-05-31T04:04:58.360Z,19.70
2018-05-31T04:07:25.873Z,19.70
2018-05-31T04:09:53.378Z,19.60
2018-05-31T04:12:21.727Z,19.60
2018-05-31T04:14:49.250Z,19.60
2018-05-31T04:17:16.753Z,19.60
2018-05-31T04:19:44.397Z,19.40
2018-05-31T04:22:12.171Z,19.50
2018-05-31T04:24:39.886Z,19.60
2018-05-31T04:27:07.399Z,19.60
2018-05-31T04:29:34.905Z,19.40
2018-05-31T04:32:02.582Z,19.40
2018-05-31T04:34:30.095Z,19.60
2018-05-31T04:36:58.391Z,19.50
2018-05-31T04:39:25.885Z,19.70
2018-05-31T04:41:53.406Z,19.70
2018-05-31T04:44:20.910Z,19.70
2018-05-31T04:46:48.554Z,19.70
2018-05-31T04:49:16.333Z,19.80
2018-05-31T04:51:43.842Z,19.70
2018-05-31T04:54:11.358Z,20.00
2018-05-31T04:56:38.881Z,19.70
2018-05-31T04:59:06.465Z,19.70
2018-05-31T05:01:33.970Z,19.70
2018-05-31T05:04:01.666Z,19.90
2018-05-31T05:06:29.278Z,19.90
2018-05-31T05:08:56.829Z,20.00
2018-05-31T05:11:24.385Z,20.10
2018-05-31T05:13:51.902Z,20.10
2018-05-31T05:16:19.407Z,20.20
2018-05-31T05:18:46.934Z,20.20
2018-05-31T05:21:14.501Z,20.30
2018-05-31T05:23:42.099Z,20.50
2018-05-31T05:26:10.474Z,20.50
2018-05-31T05:28:38.038Z,20.50
2018-05-31T05:31:05.579Z,20.60
2018-05-31T05:33:33.154Z,20.60
2018-05-31T05:36:00.661Z,20.50
2018-05-31T05:38:28.230Z,20.60
2018-05-31T05:40:55.777Z,20.90
2018-05-31T05:43:23.334Z,21.00
2018-05-31T05:45:51.090Z,21.20
2018-05-31T05:48:18.654Z,21.10
2018-05-31T05:50:46.223Z,21.10
2018-05-31T05:53:13.730Z,21.10
2018-05-31T05:55:41.439Z,21.30
2018-05-31T05:58:09.001Z,21.40
2018-05-31T06:00:36.578Z,21.40
2018-05-31T06:03:04.337Z,21.40
2018-05-31T06:05:32.655Z,21.40
2018-05-31T06:08:00.473Z,21.50
2018-05-31T06:10:27.973Z,21.60
2018-05-31T06:12:55.503Z,21.70
2018-05-31T06:15:23.039Z,21.70
2018-05-31T06:17:50.618Z,21.80
2018-05-31T06:20:18.144Z,21.80
2018-05-31T06:22:45.708Z,21.90
2018-05-31T06:25:13.284Z,22.10
2018-05-31T06:27:40.795Z,22.10
2018-05-31T06:30:08.475Z,22.10
2018-05-31T06:32:35.998Z,22.20
2018-05-31T06:35:03.722Z,22.30
2018-05-31T06:37:31.234Z,22.30
2018-05-31T06:39:58.741Z,22.40
2018-05-31T06:42:26.398Z,22.50
2018-05-31T06:44:53.914Z,22.70
2018-05-31T06:47:21.630Z,22.70
2018-05-31T06:49:49.142Z,22.70
2018-05-31T06:52:16.838Z,22.70
2018-05-31T06:54:44.615Z,22.80
2018-05-31T06:57:12.375Z,22.90
2018-05-31T06:59:40.130Z,23.00
2018-05-31T07:02:07.644Z,23.10
2018-05-31T07:04:35.154Z,23.30
2018-05-31T07:07:02.659Z,23.40
2018-05-31T07:09:30.176Z,23.30
2018-05-31T07:11:57.683Z,23.40
2018-05-31T07:14:25.194Z,23.50
2018-05-31T07:16:52.709Z,23.60
2018-05-31T07:19:20.233Z,23.60
2018-05-31T07:21:48.521Z,23.80
2018-05-31T07:24:16.228Z,23.80
2018-05-31T07:26:43.734Z,23.90
2018-05-31T07:29:11.474Z,23.90
2018-05-31T07:31:39.218Z,24.00
2018-05-31T07:34:06.733Z,24.00
2018-05-31T07:36:34.316Z,24.10
2018-05-31T07:39:01.910Z,24.20
2018-05-31T07:41:29.414Z,24.30
2018-05-31T07:43:57.234Z,24.40
2018-05-31T07:46:25.159Z,24.50
2018-05-31T07:48:52.706Z,24.60
2018-05-31T07:51:20.317Z,24.70
2018-05-31T07:53:47.835Z,24.70
2018-05-31T07:56:15.334Z,24.80
2018-05-31T07:58:43.089Z,24.90
2018-05-31T08:01:10.593Z,25.00
2018-05-31T08:03:38.118Z,24.90
2018-05-31T08:06:06.550Z,24.90
2018-05-31T08:08:34.057Z,24.90
2018-05-31T08:11:01.579Z,25.10
2018-05-31T08:13:29.117Z,25.20
2018-05-31T08:15:56.834Z,25.10
2018-05-31T08:18:26.114Z,25.30
2018-05-31T08:20:53.626Z,25.30
2018-05-31T08:23:21.299Z,25.40
2018-05-31T08:25:49.105Z,25.40
2018-05-31T08:28:16.717Z,25.40
2018-05-31T08:30:44.634Z,25.60
2018-05-31T08:33:12.399Z,25.70
2018-05-31T08:35:41.421Z,25.90
2018-05-31T08:38:08.926Z,25.90
2018-05-31T08:40:36.448Z,26.00
2018-05-31T08:43:04.723Z,26.10
2018-05-31T08:45:32.226Z,26.10
2018-05-31T08:47:59.741Z,26.20
2018-05-31T08:50:28.278Z,26.10
2018-05-31T08:52:55.906Z,26.10
2018-05-31T08:55:23.397Z,26.20
2018-05-31T08:57:50.920Z,26.20
2018-05-31T09:00:18.425Z,26.30
2018-05-31T09:02:46.175Z,26.40
2018-05-31T09:05:13.882Z,26.50
2018-05-31T09:07:41.385Z,26.70
2018-05-31T09:10:09.033Z,26.80
2018-05-31T09:12:36.615Z,26.90
2018-05-31T09:15:04.254Z,26.90
2018-05-31T09:17:31.746Z,26.90
2018-05-31T09:19:59.287Z,27.00
2018-05-31T09:22:27.062Z,27.00
2018-05-31T09:24:54.585Z,27.00
2018-05-31T09:27:22.093Z,27.10
2018-05-31T09:29:49.725Z,27.20
2018-05-31T09:32:17.485Z,27.20
2018-05-31T09:34:44.999Z,27.30
2018-05-31T09:37:12.509Z,27.20
2018-05-31T09:39:40.169Z,27.30
2018-05-31T09:42:07.678Z,27.30
2018-05-31T09:44:35.207Z,27.30
2018-05-31T09:47:02.719Z,27.30
2018-05-31T09:49:30.306Z,27.40
2018-05-31T09:51:58.062Z,27.30
2018-05-31T09:54:25.596Z,27.50
2018-05-31T09:56:53.109Z,27.60
2018-05-31T09:59:20.713Z,27.70
2018-05-31T10:01:48.226Z,27.80
2018-05-31T10:04:15.745Z,27.80
2018-05-31T10:06:43.407Z,27.80
2018-05-31T10:09:11.006Z,27.80
2018-05-31T10:11:39.308Z,27.90
2018-05-31T10:14:07.010Z,27.90
2018-05-31T10:16:34.770Z,28.00
2018-05-31T10:19:02.278Z,27.80
2018-05-31T10:21:29.894Z,27.60
2018-05-31T10:23:57.458Z,27.50
2018-05-31T10:26:24.965Z,27.60
2018-05-31T10:28:52.638Z,27.50
2018-05-31T10:31:20.175Z,27.50
2018-05-31T10:33:47.686Z,27.70
2018-05-31T10:36:15.358Z,27.70
2018-05-31T10:38:43.118Z,27.50
2018-05-31T10:41:10.881Z,27.80
2018-05-31T10:43:38.382Z,27.80
2018-05-31T10:46:05.898Z,27.50
2018-05-31T10:48:33.554Z,27.50
2018-05-31T10:51:01.092Z,27.70
2018-05-31T10:53:28.803Z,27.80
2018-05-31T10:55:56.350Z,27.80
2018-05-31T10:58:23.965Z,27.90
2018-05-31T11:00:51.496Z,28.10
2018-05-31T11:03:18.999Z,28.40
2018-05-31T11:05:46.519Z,28.50
2018-05-31T11:08:14.989Z,28.10
2018-05-31T11:10:42.722Z,28.10
2018-05-31T11:13:10.264Z,28.10
2018-05-31T11:15:37.779Z,28.00
2018-05-31T11:18:05.489Z,28.30
2018-05-31T11:20:33.254Z,28.50
2018-05-31T11:23:01.018Z,28.80
2018-05-31T11:25:28.783Z,28.80
2018-05-31T11:27:56.302Z,28.80
2018-05-31T11:30:24.006Z,28.30
2018-05-31T11:32:51.738Z,28.30
2018-05-31T11:35:19.530Z,28.30
2018-05-31T11:37:47.866Z,28.30
2018-05-31T11:40:15.378Z,28.60
2018-05-31T11:42:42.918Z,28.80
2018-05-31T11:45:10.554Z,29.00
2018-05-31T11:47:38.062Z,29.20
2018-05-31T11:50:05.582Z,29.30
2018-05-31T11:52:33.245Z,29.40
2018-05-31T11:55:01.070Z,29.30
2018-05-31T11:57:28.785Z,29.40
2018-05-31T11:59:56.561Z,29.50
2018-05-31T12:02:24.313Z,29.60
2018-05-31T12:04:51.866Z,29.50
2018-05-31T12:07:19.371Z,29.60
2018-05-31T12:09:47.954Z,29.30
2018-05-31T12:12:15.694Z,29.30
2018-05-31T12:14:43.194Z,28.90
2018-05-31T12:17:10.893Z,28.70
2018-05-31T12:19:38.663Z,28.60
2018-05-31T12:22:06.188Z,28.60
2018-05-31T12:24:33.890Z,28.60
2018-05-31T12:27:01.515Z,28.60
2018-05-31T12:29:29.098Z,28.60
2018-05-31T12:31:56.602Z,28.80
2018-05-31T12:34:24.105Z,29.20
2018-05-31T12:36:51.783Z,29.30
2018-05-31T12:39:19.287Z,29.40
2018-05-31T12:41:46.995Z,29.10
2018-05-31T12:44:14.514Z,28.90
2018-05-31T12:46:42.021Z,28.80
2018-05-31T12:49:10.262Z,28.90
2018-05-31T12:51:37.770Z,29.00
2018-05-31T12:54:05.502Z,29.20
2018-05-31T12:56:33.043Z,29.20
2018-05-31T12:59:00.705Z,29.30
2018-05-31T13:01:28.923Z,29.50
2018-05-31T13:03:56.438Z,30.10
2018-05-31T13:06:24.034Z,30.10
2018-05-31T13:08:51.786Z,30.30
2018-05-31T13:11:19.289Z,30.20
2018-05-31T13:13:47.002Z,30.00
2018-05-31T13:16:14.507Z,29.80
2018-05-31T13:18:42.030Z,29.50
2018-05-31T13:21:09.693Z,29.50
2018-05-31T13:23:37.208Z,29.50
2018-05-31T13:26:04.898Z,29.60
2018-05-31T13:28:32.528Z,29.60
2018-05-31T13:31:00.114Z,29.50
2018-05-31T13:33:27.685Z,29.50
2018-05-31T13:35:55.305Z,29.00
2018-05-31T13:38:23.118Z,28.90
2018-05-31T13:40:50.641Z,28.60
2018-05-31T13:43:18.345Z,28.60
2018-05-31T13:45:45.864Z,28.40
2018-05-31T13:48:13.543Z,28.40
2018-05-31T13:50:41.499Z,28.30
2018-05-31T13:53:09.022Z,28.20
2018-05-31T13:55:36.546Z,28.50
2018-05-31T13:58:04.216Z,28.70
2018-05-31T14:00:32.492Z,29.20
2018-05-31T14:03:00.138Z,29.20
2018-05-31T14:05:27.650Z,28.90
2018-05-31T14:07:55.347Z,28.70
2018-05-31T14:10:22.848Z,28.60
2018-05-31T14:12:50.564Z,28.60
2018-05-31T14:15:18.071Z,28.90
2018-05-31T14:17:45.619Z,29.20
2018-05-31T14:20:13.898Z,29.50
2018-05-31T14:22:41.657Z,29.50
2018-05-31T14:25:09.405Z,29.60
2018-05-31T14:27:36.925Z,29.60
2018-05-31T14:30:04.434Z,30.00
2018-05-31T14:32:32.705Z,29.70
2018-05-31T14:35:00.262Z,29.70
2018-05-31T14:37:28.530Z,29.90
2018-05-31T14:39:56.121Z,29.70
2018-05-31T14:42:23.776Z,29.70
2018-05-31T14:44:51.525Z,29.50
2018-05-31T14:47:19.296Z,29.50
2018-05-31T14:49:46.829Z,29.50
2018-05-31T14:52:14.583Z,29.50
2018-05-31T14:54:42.278Z,29.90
2018-05-31T14:57:09.853Z,29.90
2018-05-31T14:59:38.179Z,29.90
2018-05-31T15:02:05.753Z,29.90
2018-05-31T15:04:33.331Z,29.50
2018-05-31T15:07:00.904Z,29.50
2018-05-31T15:09:29.250Z,29.90
2018-05-31T15:11:57.233Z,29.90
2018-05-31T15:14:24.758Z,30.00
2018-05-31T15:16:52.342Z,29.70
2018-05-31T15:19:19.877Z,29.90
2018-05-31T15:21:47.415Z,29.90
2018-05-31T15:24:14.990Z,29.60
2018-05-31T15:26:42.583Z,29.60
2018-05-31T15:29:10.373Z,29.60
2018-05-31T15:31:38.097Z,29.70
2018-05-31T15:34:06.423Z,29.40
2018-05-31T15:36:34.002Z,29.30
2018-05-31T15:39:01.603Z,29.30
2018-05-31T15:41:29.190Z,30.00
2018-05-31T15:43:56.707Z,29.90
2018-05-31T15:46:24.230Z,29.90
2018-05-31T15:48:51.820Z,30.00
2018-05-31T15:51:19.350Z,30.60
2018-05-31T15:53:46.862Z,30.60
2018-05-31T15:56:14.366Z,30.30
2018-05-31T15:58:41.870Z,30.00
2018-05-31T16:01:09.369Z,29.30
2018-05-31T16:03:36.890Z,29.20
2018-05-31T16:06:04.393Z,29.40
2018-05-31T16:08:31.932Z,29.40
2018-05-31T16:11:00.191Z,29.60
2018-05-31T16:13:27.918Z,29.50
2018-05-31T16:15:55.701Z,29.50
2018-05-31T16:18:23.227Z,30.10
2018-05-31T16:20:50.901Z,29.60
2018-05-31T16:23:18.415Z,29.20
2018-05-31T16:25:46.163Z,30.30
2018-05-31T16:28:13.869Z,30.30
2018-05-31T16:30:41.611Z,31.30
2018-05-31T16:33:09.639Z,30.50
2018-05-31T16:35:37.146Z,30.50
2018-05-31T16:38:04.709Z,30.00
2018-05-31T16:40:32.399Z,29.60
2018-05-31T16:42:59.902Z,28.90
2018-05-31T16:45:27.584Z,28.90
2018-05-31T16:47:55.091Z,28.80
2018-05-31T16:50:22.594Z,28.70
2018-05-31T16:52:50.267Z,28.60
2018-05-31T16:55:18.663Z,28.60
2018-05-31T16:57:46.198Z,28.60
2018-05-31T17:00:13.874Z,28.30
2018-05-31T17:02:41.666Z,28.30
2018-05-31T17:05:09.189Z,28.20
2018-05-31T17:07:36.694Z,28.20
2018-05-31T17:10:04.817Z,28.40
2018-05-31T17:12:32.718Z,28.30
2018-05-31T17:15:00.518Z,28.50
2018-05-31T17:17:27.971Z,28.90
2018-05-31T17:19:55.689Z,29.40
2018-05-31T17:22:23.324Z,29.50
2018-05-31T17:24:50.914Z,30.30
2018-05-31T17:27:18.431Z,30.60
2018-05-31T17:29:46.128Z,30.30
2018-05-31T17:32:13.622Z,30.30
2018-05-31T17:34:41.330Z,29.90
2018-05-31T17:37:08.861Z,29.20
2018-05-31T17:39:36.380Z,28.60
2018-05-31T17:42:03.899Z,28.50
2018-05-31T17:44:31.487Z,28.10
2018-05-31T17:46:58.986Z,27.80
2018-05-31T17:49:26.702Z,27.30
2018-05-31T17:51:54.212Z,27.30
2018-05-31T17:54:21.895Z,26.80
2018-05-31T17:56:49.687Z,26.80
2018-05-31T17:59:17.205Z,26.50
2018-05-31T18:01:44.890Z,26.20
2018-05-31T18:04:12.401Z,26.20
2018-05-31T18:06:40.433Z,26.10
2018-05-31T18:09:08.199Z,25.80
2018-05-31T18:11:35.710Z,25.80
2018-05-31T18:14:03.230Z,26.10
2018-05-31T18:16:30.845Z,25.80
2018-05-31T18:18:58.642Z,25.90
2018-05-31T18:21:26.158Z,25.60
2018-05-31T18:23:53.690Z,25.60
2018-05-31T18:26:21.962Z,25.70
2018-05-31T18:28:49.474Z,25.80
2018-05-31T18:31:18.686Z,25.40
2018-05-31T18:33:46.459Z,25.40
2018-05-31T18:36:14.090Z,25.30
2018-05-31T18:38:41.590Z,25.20
2018-05-31T18:41:09.308Z,25.00
2018-05-31T18:43:36.804Z,24.90
2018-05-31T18:46:04.722Z,24.70
2018-05-31T18:48:32.237Z,24.60
2018-05-31T18:51:00.056Z,24.70
2018-05-31T18:53:27.571Z,24.80
2018-05-31T18:55:55.104Z,24.70
2018-05-31T18:58:22.621Z,24.70
2018-05-31T19:00:50.912Z,24.60
2018-05-31T19:03:18.441Z,24.60
2018-05-31T19:05:45.974Z,24.40
2018-05-31T19:08:13.888Z,24.40
2018-05-31T19:10:41.401Z,24.40
2018-05-31T19:13:14.947Z,24.20
2018-05-31T19:15:42.446Z,24.10
2018-05-31T19:18:15.692Z,24.20
2018-05-31T19:20:43.294Z,24.10
2018-05-31T19:23:10.797Z,24.00
2018-05-31T19:25:38.394Z,24.00
2018-05-31T19:28:05.904Z,24.10
2018-05-31T19:30:40.077Z,24.10
2018-05-31T19:33:08.158Z,23.80
2018-05-31T19:38:38.690Z,23.70
2018-05-31T19:41:06.211Z,23.60
2018-05-31T19:43:39.472Z,23.40
2018-05-31T19:46:07.010Z,23.60
2018-05-31T19:48:34.666Z,23.60
2018-05-31T19:51:02.189Z,23.70
2018-05-31T19:53:35.778Z,23.40
2018-05-31T19:56:03.286Z,23.40
2018-05-31T19:58:36.662Z,23.40
2018-05-31T20:01:09.811Z,23.30
2018-05-31T20:03:37.505Z,23.20
2018-05-31T20:06:05.077Z,23.20
2018-05-31T20:08:32.583Z,23.20
2018-05-31T20:11:01.894Z,22.90
2018-05-31T20:13:30.171Z,22.90
2018-05-31T20:15:58.182Z,22.90
2018-05-31T20:18:25.695Z,22.90
2018-05-31T20:20:54.602Z,22.70
2018-05-31T20:23:22.111Z,22.50
2018-05-31T20:25:49.831Z,22.50
2018-05-31T20:28:17.455Z,22.60
2018-05-31T20:30:46.071Z,22.70
2018-05-31T20:33:13.524Z,22.90
2018-05-31T20:35:41.258Z,23.00
2018-05-31T20:38:08.822Z,22.90
2018-05-31T20:40:37.124Z,22.70
2018-05-31T20:43:05.031Z,22.70
2018-05-31T20:45:32.601Z,22.70
2018-05-31T20:48:01.443Z,22.60
2018-05-31T20:50:29.043Z,22.70
2018-05-31T20:52:57.007Z,22.40
2018-05-31T20:55:24.493Z,22.40
2018-05-31T20:57:52.961Z,22.50
2018-05-31T21:00:20.473Z,22.40
2018-05-31T21:02:48.173Z,22.30
2018-05-31T21:05:15.939Z,22.30
2018-05-31T21:07:43.678Z,22.20
2018-05-31T21:10:11.177Z,22.20
2018-05-31T21:12:38.691Z,22.10
2018-05-31T21:15:06.196Z,22.10
2018-05-31T21:17:34.499Z,22.00
2018-05-31T21:20:02.232Z,22.00
2018-05-31T21:22:29.966Z,22.00
2018-05-31T21:24:57.473Z,22.00
2018-05-31T21:27:25.450Z,21.80
2018-05-31T21:29:52.958Z,21.80
2018-05-31T21:32:21.291Z,22.00
2018-05-31T21:34:48.785Z,22.00
2018-05-31T21:37:16.293Z,22.10
2018-05-31T21:39:43.991Z,22.00
2018-05-31T21:42:11.506Z,21.80
2018-05-31T21:44:39.019Z,21.70
2018-05-31T21:47:06.550Z,21.80
2018-05-31T21:49:34.060Z,21.80
2018-05-31T21:52:01.601Z,21.80
2018-05-31T21:54:30.614Z,21.70
2018-05-31T21:56:58.118Z,21.70
2018-05-31T21:59:25.633Z,21.70
2018-05-31T22:01:54.191Z,21.70
2018-05-31T22:04:21.703Z,21.70
2018-05-31T22:06:49.226Z,21.80
2018-05-31T22:09:17.502Z,21.70
2018-05-31T22:11:45.230Z,21.70
2018-05-31T22:14:12.733Z,21.80
2018-05-31T22:16:40.696Z,21.70
2018-05-31T22:19:08.198Z,21.70
2018-05-31T22:21:36.018Z,21.70
2018-05-31T22:24:03.574Z,21.60
2018-05-31T22:26:31.850Z,21.50
2018-05-31T22:28:59.351Z,21.40
2018-05-31T22:31:26.931Z,21.40
2018-05-31T22:33:54.446Z,21.30
2018-05-31T22:36:21.952Z,21.40
2018-05-31T22:38:49.467Z,21.40
2018-05-31T22:41:17.466Z,21.20
2018-05-31T22:43:44.986Z,21.40
2018-05-31T22:46:12.481Z,21.40
2018-05-31T22:48:40.328Z,21.30
2018-05-31T22:51:07.867Z,21.30
2018-05-31T22:53:35.378Z,21.40
2018-05-31T22:56:02.895Z,21.20
2018-05-31T22:58:30.410Z,21.10
2018-05-31T23:00:57.916Z,21.10
2018-05-31T23:03:25.432Z,21.00
2018-05-31T23:05:52.934Z,20.90
2018-05-31T23:08:20.462Z,21.00
2018-05-31T23:10:48.142Z,20.80
2018-05-31T23:13:15.650Z,20.80
2018-05-31T23:15:44.007Z,20.80
2018-05-31T23:18:11.519Z,20.80
2018-05-31T23:20:39.141Z,21.00
2018-05-31T23:23:06.655Z,21.20
2018-05-31T23:25:34.149Z,21.00
2018-05-31T23:28:01.906Z,20.90
2018-05-31T23:30:29.670Z,20.70
2018-05-31T23:32:57.178Z,20.70
2018-05-31T23:35:24.895Z,20.60
2018-05-31T23:37:52.398Z,20.80
2018-05-31T23:40:20.114Z,20.70
2018-05-31T23:42:47.644Z,20.70
2018-05-31T23:45:15.356Z,20.80
2018-05-31T23:47:42.875Z,20.80
2018-05-31T23:50:10.378Z,20.70
2018-05-31T23:52:37.887Z,20.70
2018-05-31T23:55:05.790Z,20.70
2018-05-31T23:57:33.511Z,20.60
